Time;durP1;ratioP1;P1;durP2;ratioP2;P2;SDS_P1;SDS_P2;PMS_P1;PMS_P2;Temp;Humidity;BMP_temperature;BMP_pressure;BME280_temperature;BME280_humidity;BME280_pressure;Samples;Min_cycle;Max_cycle;Signal;HPM_P1;HPM_P2
2021/11/16 00:01:55;;;;;;;13.38;9.18;;;15.90;50.20;;;;;;5035286;28;20014;-50
2021/11/16 00:04:30;;;;;;;14.13;9.23;;;15.90;50.20;;;;;;5034829;28;20444;-47
2021/11/16 00:06:55;;;;;;;12.50;8.88;;;16.00;50.20;;;;;;5034901;28;20057;-51
2021/11/16 00:09:21;;;;;;;14.18;8.98;;;16.00;50.20;;;;;;5034847;28;20022;-49
2021/11/16 00:11:47;;;;;;;14.68;9.05;;;16.00;50.20;;;;;;5035380;28;20034;-47
2021/11/16 00:14:13;;;;;;;13.18;9.63;;;16.00;50.30;;;;;;5017626;28;20080;-49
2021/11/16 00:16:42;;;;;;;13.30;9.95;;;16.00;50.30;;;;;;5018296;28;20029;-50
2021/11/16 00:19:11;;;;;;;14.48;9.43;;;15.90;50.20;;;;;;5035337;28;20021;-48
2021/11/16 00:21:39;;;;;;;14.10;10.13;;;15.90;50.20;;;;;;5036033;28;20540;-51
2021/11/16 00:24:11;;;;;;;15.43;9.73;;;16.00;50.30;;;;;;5035164;28;20770;-47
2021/11/16 00:26:38;;;;;;;14.05;10.18;;;15.90;50.20;;;;;;5033858;28;20025;-48
2021/11/16 00:29:07;;;;;;;12.30;8.98;;;15.90;50.30;;;;;;5034033;28;20021;-50
2021/11/16 00:31:33;;;;;;;14.35;9.60;;;15.90;50.20;;;;;;5034281;28;20025;-49
2021/11/16 00:33:59;;;;;;;16.35;9.73;;;15.90;50.30;;;;;;5034115;28;20025;-51
2021/11/16 00:36:26;;;;;;;15.35;9.73;;;15.90;50.30;;;;;;5034583;28;20032;-48
2021/11/16 00:38:52;;;;;;;13.73;10.02;;;15.90;50.30;;;;;;5034197;28;20024;-49
2021/11/16 00:41:18;;;;;;;13.32;9.73;;;15.90;50.30;;;;;;5034760;28;20018;-48
2021/11/16 00:43:45;;;;;;;15.85;10.00;;;15.90;50.30;;;;;;5018540;28;20048;-50
2021/11/16 00:46:11;;;;;;;15.80;11.13;;;15.90;50.30;;;;;;5019032;28;20022;-50
2021/11/16 00:48:38;;;;;;;14.18;9.45;;;15.90;50.30;;;;;;5034718;28;20044;-47
2021/11/16 00:51:04;;;;;;;11.55;9.48;;;15.90;50.30;;;;;;5016391;28;20478;-47
2021/11/16 00:53:32;;;;;;;15.48;9.88;;;15.90;50.40;;;;;;5033420;28;20032;-49
2021/11/16 00:55:58;;;;;;;13.05;9.93;;;15.90;50.40;;;;;;5033060;28;20025;-49
2021/11/16 00:58:24;;;;;;;15.45;9.75;;;15.90;50.40;;;;;;5032750;28;20156;-50
2021/11/16 01:00:53;;;;;;;13.77;10.23;;;15.80;50.40;;;;;;5036419;28;20432;-47
2021/11/16 01:03:18;;;;;;;17.30;10.50;;;15.80;50.40;;;;;;5036619;28;20040;-50
2021/11/16 01:05:45;;;;;;;16.50;10.70;;;15.80;50.40;;;;;;5036401;28;20458;-49
2021/11/16 01:08:11;;;;;;;15.40;11.00;;;15.80;50.40;;;;;;5036385;28;20022;-47
2021/11/16 01:10:38;;;;;;;15.98;11.68;;;15.80;50.40;;;;;;5036447;28;20167;-47
2021/11/16 01:13:04;;;;;;;16.27;10.77;;;15.80;50.40;;;;;;5035907;28;20044;-47
2021/11/16 01:15:31;;;;;;;17.60;10.75;;;15.80;50.50;;;;;;5036838;28;20018;-47
2021/11/16 01:17:56;;;;;;;15.35;11.00;;;15.80;50.30;;;;;;5036654;28;20025;-49
2021/11/16 01:20:22;;;;;;;15.90;11.52;;;15.80;50.40;;;;;;5019010;28;20025;-47
2021/11/16 01:22:50;;;;;;;14.00;10.27;;;15.80;50.40;;;;;;5036690;28;20010;-50
2021/11/16 01:25:16;;;;;;;16.02;10.32;;;15.80;50.30;;;;;;5036389;28;20089;-47
2021/11/16 01:27:43;;;;;;;15.02;10.35;;;15.80;50.30;;;;;;5036956;28;20079;-47
2021/11/16 01:30:11;;;;;;;16.23;11.57;;;15.80;50.30;;;;;;5036096;28;20013;-47
2021/11/16 01:32:42;;;;;;;15.68;10.60;;;15.80;50.30;;;;;;5036535;28;20101;-50
2021/11/16 01:35:08;;;;;;;14.05;11.35;;;15.80;50.30;;;;;;5036352;28;20022;-48
2021/11/16 01:37:34;;;;;;;19.35;11.95;;;15.80;50.30;;;;;;5035505;28;20025;-49
2021/11/16 01:40:00;;;;;;;18.15;12.32;;;15.80;50.20;;;;;;5036577;28;20156;-50
2021/11/16 01:42:26;;;;;;;16.48;12.40;;;15.80;50.20;;;;;;5036334;28;20014;-49
2021/11/16 01:44:52;;;;;;;16.85;12.13;;;15.80;50.10;;;;;;5036611;28;20028;-49
2021/11/16 01:47:18;;;;;;;16.63;11.65;;;15.80;50.10;;;;;;5019018;28;20036;-50
2021/11/16 01:49:43;;;;;;;15.65;11.90;;;15.80;50.20;;;;;;5037036;28;20048;-51
2021/11/16 01:52:09;;;;;;;16.65;11.80;;;15.80;50.10;;;;;;5019515;28;20112;-47
2021/11/16 01:54:36;;;;;;;17.90;11.63;;;15.80;50.10;;;;;;5037586;28;20125;-51
2021/11/16 01:57:03;;;;;;;17.17;12.57;;;15.70;50.00;;;;;;5038272;28;20018;-50
2021/11/16 01:59:29;;;;;;;16.77;12.32;;;15.80;50.00;;;;;;5038374;28;20029;-52
2021/11/16 02:01:55;;;;;;;17.63;12.73;;;15.80;49.90;;;;;;5037769;28;20017;-50
2021/11/16 02:04:22;;;;;;;18.42;12.00;;;15.70;49.80;;;;;;5038189;28;20049;-51
2021/11/16 02:06:48;;;;;;;15.15;11.68;;;15.70;49.80;;;;;;5038186;28;20041;-47
2021/11/16 02:09:14;;;;;;;17.92;12.38;;;15.70;49.80;;;;;;5037634;28;20029;-47
2021/11/16 02:11:42;;;;;;;18.73;11.93;;;15.70;49.80;;;;;;5036846;28;20068;-47
2021/11/16 02:14:11;;;;;;;13.80;11.88;;;15.70;49.70;;;;;;5038068;28;20084;-49
2021/11/16 02:16:39;;;;;;;17.70;12.07;;;15.70;49.60;;;;;;5038917;28;20485;-50
2021/11/16 02:19:07;;;;;;;18.80;12.40;;;15.70;49.70;;;;;;5038329;28;20512;-48
2021/11/16 02:21:32;;;;;;;16.13;11.90;;;15.70;49.70;;;;;;5038935;28;20021;-48
2021/11/16 02:23:59;;;;;;;17.13;11.88;;;15.70;49.70;;;;;;5022201;28;20021;-48
2021/11/16 02:26:25;;;;;;;17.48;12.27;;;15.70;49.70;;;;;;5038333;28;20017;-47
2021/11/16 02:28:51;;;;;;;19.77;12.93;;;15.70;49.70;;;;;;5019998;28;20025;-47
2021/11/16 02:31:18;;;;;;;16.58;11.68;;;15.70;49.70;;;;;;5037131;28;20028;-46
2021/11/16 02:33:45;;;;;;;18.67;13.25;;;15.70;49.70;;;;;;5038647;28;20045;-49
2021/11/16 02:36:11;;;;;;;18.50;12.18;;;15.70;49.70;;;;;;5021454;28;20036;-49
2021/11/16 02:38:37;;;;;;;17.73;12.95;;;15.70;49.60;;;;;;5037394;28;20124;-50
2021/11/16 02:41:04;;;;;;;19.15;12.70;;;15.70;49.70;;;;;;5019372;28;20133;-46
2021/11/16 02:43:31;;;;;;;19.70;12.40;;;15.70;49.70;;;;;;5036940;28;20020;-51
2021/11/16 02:45:56;;;;;;;17.27;13.38;;;15.70;49.60;;;;;;5037573;28;20020;-50
2021/11/16 02:48:22;;;;;;;17.90;12.77;;;15.70;49.60;;;;;;5037322;28;20029;-49
2021/11/16 02:50:55;;;;;;;21.00;13.30;;;15.70;49.50;;;;;;5036098;28;20017;-49
2021/11/16 02:53:22;;;;;;;19.05;13.10;;;15.70;49.60;;;;;;5035037;28;20067;-48
2021/11/16 02:55:47;;;;;;;18.50;13.57;;;15.70;49.50;;;;;;5034961;28;20085;-50
2021/11/16 02:58:13;;;;;;;21.65;14.77;;;15.70;49.50;;;;;;5034990;28;20033;-47
2021/11/16 03:00:40;;;;;;;17.95;13.05;;;15.70;49.50;;;;;;5035035;28;20017;-48
2021/11/16 03:03:06;;;;;;;23.13;13.73;;;15.70;49.50;;;;;;5035438;28;20013;-47
2021/11/16 03:05:35;;;;;;;19.20;14.20;;;15.70;49.50;;;;;;5035334;28;20111;-51
2021/11/16 03:08:21;;;;;;;20.38;14.68;;;15.70;49.50;;;;;;5034315;28;20050;-51
2021/11/16 03:10:50;;;;;;;20.20;15.07;;;15.70;49.50;;;;;;5034597;28;20049;-47
2021/11/16 03:13:16;;;;;;;19.90;14.38;;;15.70;49.40;;;;;;5034188;28;20104;-48
2021/11/16 03:15:43;;;;;;;21.83;15.27;;;15.70;49.50;;;;;;5034426;28;20033;-49
2021/11/16 03:18:09;;;;;;;20.05;15.00;;;15.70;49.40;;;;;;5034236;28;20040;-48
2021/11/16 03:20:35;;;;;;;21.50;16.38;;;15.70;49.30;;;;;;5034037;28;20018;-50
2021/11/16 03:23:34;;;;;;;24.60;17.02;;;15.70;49.20;;;;;;5033144;28;20029;-48
2021/11/16 03:25:56;;;;;;;20.33;15.57;;;15.70;49.20;;;;;;5031997;28;20068;-50
2021/11/16 03:28:23;;;;;;;25.73;15.23;;;15.80;49.00;;;;;;5033716;28;20025;-47
2021/11/16 03:30:51;;;;;;;22.77;16.10;;;15.90;48.90;;;;;;5033589;28;20024;-50
2021/11/16 03:33:18;;;;;;;22.05;15.32;;;16.00;48.50;;;;;;5034228;28;20100;-50
2021/11/16 03:35:45;;;;;;;19.15;15.50;;;16.20;48.20;;;;;;5034224;28;20100;-50
2021/11/16 03:38:11;;;;;;;23.05;15.70;;;16.30;47.90;;;;;;5034449;28;20056;-47
2021/11/16 03:40:38;;;;;;;22.90;16.30;;;16.40;47.70;;;;;;5016375;28;20061;-49
2021/11/16 03:43:04;;;;;;;24.80;15.73;;;16.40;47.50;;;;;;5034042;28;20018;-47
2021/11/16 03:45:31;;;;;;;22.77;15.73;;;16.50;47.30;;;;;;5016322;28;20025;-51
2021/11/16 03:47:57;;;;;;;21.60;14.90;;;16.60;47.20;;;;;;5033782;28;20029;-50
2021/11/16 03:50:25;;;;;;;20.55;15.68;;;16.70;47.00;;;;;;5034080;28;20551;-50
2021/11/16 03:52:53;;;;;;;22.60;15.48;;;16.80;46.80;;;;;;5033706;28;20021;-50
2021/11/16 03:55:20;;;;;;;23.27;16.20;;;16.90;46.60;;;;;;5033677;28;20018;-50
2021/11/16 03:57:46;;;;;;;22.40;15.23;;;16.90;46.40;;;;;;5033738;28;20024;-50
2021/11/16 04:00:17;;;;;;;18.20;14.77;;;17.00;46.10;;;;;;5033363;28;20478;-47
2021/11/16 04:02:42;;;;;;;25.73;14.93;;;17.10;46.00;;;;;;5033414;28;20024;-51
2021/11/16 04:05:08;;;;;;;23.20;15.75;;;17.20;45.80;;;;;;5015753;28;20108;-51
2021/11/16 04:07:35;;;;;;;19.48;15.43;;;17.30;45.60;;;;;;5033958;28;20045;-48
2021/11/16 04:10:03;;;;;;;24.90;15.52;;;17.30;45.30;;;;;;5033466;28;20512;-50
2021/11/16 04:12:29;;;;;;;20.63;15.20;;;17.50;45.20;;;;;;5033474;28;20014;-48
2021/11/16 04:14:54;;;;;;;20.10;14.85;;;17.50;45.00;;;;;;5033798;28;20026;-48
2021/11/16 04:17:20;;;;;;;19.02;15.07;;;17.60;44.90;;;;;;5016079;28;20079;-49
2021/11/16 04:19:46;;;;;;;24.67;16.38;;;17.70;44.60;;;;;;4999458;28;20047;-47
2021/11/16 04:22:11;;;;;;;18.23;14.20;;;17.70;44.40;;;;;;5015675;28;20120;-52
2021/11/16 04:24:37;;;;;;;19.92;15.93;;;17.80;44.40;;;;;;5033526;28;20021;-51
2021/11/16 04:27:04;;;;;;;20.60;15.40;;;17.80;44.20;;;;;;5033677;28;20466;-48
2021/11/16 04:29:30;;;;;;;25.13;15.50;;;17.90;44.00;;;;;;5033685;28;20037;-51
2021/11/16 04:31:57;;;;;;;21.83;15.80;;;18.00;43.90;;;;;;5033376;28;20045;-51
2021/11/16 04:34:23;;;;;;;20.83;15.05;;;18.10;43.70;;;;;;5019000;28;20037;-51
2021/11/16 04:36:49;;;;;;;25.83;15.00;;;18.20;43.50;;;;;;5020186;28;20041;-51
2021/11/16 04:39:15;;;;;;;19.70;15.13;;;18.20;43.30;;;;;;5037286;28;20036;-52
2021/11/16 04:41:43;;;;;;;23.60;15.50;;;18.30;43.20;;;;;;5037357;28;20013;-51
2021/11/16 04:44:10;;;;;;;19.25;15.32;;;18.40;43.10;;;;;;5037402;28;20021;-53
2021/11/16 04:46:35;;;;;;;23.30;15.27;;;18.50;42.90;;;;;;5019413;28;20028;-52
2021/11/16 04:49:10;;;;;;;20.80;15.88;;;18.50;42.80;;;;;;5037752;28;20080;-51
2021/11/16 05:02:34;;;;;;;21.48;16.23;;;18.70;42.20;;;;;;5037455;28;20045;-52
2021/11/16 05:02:37;;;;;;;22.10;15.70;;;18.70;42.10;;;;;;5019587;28;20026;-52
2021/11/16 05:05:08;;;;;;;21.83;15.18;;;18.80;42.00;;;;;;5037141;28;20032;-51
2021/11/16 05:07:34;;;;;;;22.33;16.10;;;18.90;42.00;;;;;;5036692;28;20048;-51
2021/11/16 05:10:00;;;;;;;21.73;16.20;;;18.90;41.80;;;;;;5019449;28;20017;-49
2021/11/16 05:12:27;;;;;;;21.05;16.08;;;18.90;41.80;;;;;;5037230;28;20025;-48
2021/11/16 05:14:54;;;;;;;20.00;15.48;;;19.00;41.60;;;;;;5036854;28;20018;-51
2021/11/16 05:17:20;;;;;;;20.58;16.58;;;19.00;41.50;;;;;;5037133;28;20033;-52
2021/11/16 05:19:46;;;;;;;22.45;15.77;;;19.00;41.40;;;;;;5019014;28;20030;-52
2021/11/16 05:22:12;;;;;;;21.02;15.90;;;19.10;41.30;;;;;;5036638;28;20111;-50
2021/11/16 05:24:38;;;;;;;21.27;16.73;;;19.10;41.20;;;;;;5018471;28;20049;-49
2021/11/16 05:27:05;;;;;;;22.38;15.88;;;19.10;41.20;;;;;;5036020;28;20533;-50
2021/11/16 05:29:31;;;;;;;22.92;16.92;;;19.20;41.00;;;;;;5036622;28;20490;-50
2021/11/16 05:31:57;;;;;;;21.25;16.45;;;19.20;40.90;;;;;;5019136;28;20486;-50
2021/11/16 05:34:24;;;;;;;20.50;16.88;;;19.20;40.90;;;;;;5037020;28;20092;-47
2021/11/16 05:36:50;;;;;;;18.67;15.90;;;19.30;40.80;;;;;;5019305;28;20477;-50
2021/11/16 05:39:17;;;;;;;20.50;16.50;;;19.30;41.30;;;;;;5037244;28;20505;-52
2021/11/16 05:41:44;;;;;;;20.13;16.90;;;19.30;40.70;;;;;;5037881;28;20021;-54
2021/11/16 05:44:10;;;;;;;21.58;16.70;;;19.30;40.50;;;;;;5037900;28;20014;-52
2021/11/16 05:46:36;;;;;;;24.73;16.77;;;19.30;40.60;;;;;;5037257;28;20017;-53
2021/11/16 05:49:02;;;;;;;20.95;16.92;;;19.30;40.40;;;;;;5019989;28;20041;-52
2021/11/16 05:51:28;;;;;;;19.10;16.15;;;19.40;40.40;;;;;;5020646;28;20021;-54
2021/11/16 05:53:57;;;;;;;23.70;16.85;;;19.40;40.30;;;;;;5038958;28;20025;-53
2021/11/16 05:56:27;;;;;;;22.00;16.85;;;19.40;40.20;;;;;;5021293;28;20026;-54
2021/11/16 05:58:53;;;;;;;23.83;17.92;;;19.50;40.10;;;;;;5038988;28;20449;-50
2021/11/16 06:01:21;;;;;;;22.95;16.88;;;19.50;40.00;;;;;;5039818;28;20104;-51
2021/11/16 06:03:51;;;;;;;24.17;16.92;;;19.50;40.10;;;;;;5038863;28;20017;-50
2021/11/16 06:06:25;;;;;;;23.63;17.08;;;19.50;39.90;;;;;;5037626;28;20080;-50
2021/11/16 06:08:52;;;;;;;21.90;15.50;;;19.50;39.80;;;;;;5037123;28;20022;-51
2021/11/16 06:11:18;;;;;;;20.70;16.92;;;19.60;39.70;;;;;;5019787;28;20108;-50
2021/11/16 06:13:45;;;;;;;21.10;17.23;;;19.60;39.70;;;;;;5019792;28;20025;-49
2021/11/16 06:16:11;;;;;;;19.80;15.57;;;19.60;39.70;;;;;;5020121;28;20029;-50
2021/11/16 06:18:38;;;;;;;24.10;17.10;;;19.60;39.60;;;;;;5020064;28;20569;-49
2021/11/16 06:21:05;;;;;;;23.58;17.10;;;19.60;39.60;;;;;;5037192;28;20014;-51
2021/11/16 06:23:31;;;;;;;27.25;17.10;;;19.70;39.50;;;;;;5037302;28;20020;-50
2021/11/16 06:25:57;;;;;;;22.23;17.15;;;19.70;39.40;;;;;;5038751;28;20100;-52
2021/11/16 06:28:23;;;;;;;21.00;17.20;;;19.70;39.30;;;;;;5038646;28;20056;-49
2021/11/16 06:30:49;;;;;;;23.20;17.35;;;19.80;39.20;;;;;;5039334;28;20092;-48
2021/11/16 06:33:20;;;;;;;20.33;17.35;;;19.70;39.20;;;;;;5038148;28;20434;-48
2021/11/16 06:35:46;;;;;;;24.60;17.88;;;19.70;39.20;;;;;;5036654;28;20030;-49
2021/11/16 06:38:12;;;;;;;20.08;17.27;;;19.70;39.40;;;;;;5036692;28;20021;-50
2021/11/16 06:40:38;;;;;;;24.70;19.02;;;19.80;39.10;;;;;;5018830;28;20066;-49
2021/11/16 06:43:04;;;;;;;21.60;17.63;;;19.80;39.00;;;;;;5018483;28;20109;-51
2021/11/16 06:45:29;;;;;;;24.38;18.58;;;19.80;38.90;;;;;;5035005;28;20149;-46
2021/11/16 06:47:55;;;;;;;24.33;18.25;;;19.80;39.00;;;;;;5016629;28;20071;-49
2021/11/16 06:50:22;;;;;;;23.20;17.52;;;19.80;38.80;;;;;;5034067;28;20079;-51
2021/11/16 06:52:48;;;;;;;22.35;18.42;;;19.90;38.80;;;;;;5034227;28;20100;-48
2021/11/16 06:55:15;;;;;;;21.90;18.75;;;19.90;38.70;;;;;;5033871;28;20022;-50
2021/11/16 06:57:43;;;;;;;26.10;18.90;;;19.90;38.60;;;;;;5015817;28;20018;-48
2021/11/16 07:00:10;;;;;;;22.20;18.73;;;19.90;38.70;;;;;;5033829;28;20026;-48
2021/11/16 07:02:36;;;;;;;29.15;19.90;;;19.90;38.50;;;;;;5033847;28;20010;-48
2021/11/16 07:05:11;;;;;;;25.63;20.40;;;20.00;38.50;;;;;;5016086;28;20336;-47
2021/11/16 07:07:44;;;;;;;26.63;20.13;;;20.00;38.50;;;;;;5015702;28;20141;-47
2021/11/16 07:10:11;;;;;;;25.08;19.02;;;20.00;38.40;;;;;;5032990;28;20470;-51
2021/11/16 07:12:38;;;;;;;27.98;20.83;;;20.00;38.40;;;;;;5033354;28;20100;-47
2021/11/16 07:15:04;;;;;;;27.73;20.92;;;20.10;38.30;;;;;;5033124;28;20430;-51
2021/11/16 07:17:31;;;;;;;25.33;20.38;;;20.00;38.20;;;;;;5033155;28;20010;-46
2021/11/16 07:19:59;;;;;;;29.50;20.45;;;20.00;38.30;;;;;;5031862;28;20033;-48
2021/11/16 07:22:26;;;;;;;29.80;20.77;;;20.00;38.30;;;;;;5012865;28;20022;-47
2021/11/16 07:25:08;;;;;;;28.52;20.95;;;20.00;38.40;;;;;;5031527;28;20025;-46
2021/11/16 07:27:36;;;;;;;27.20;21.05;;;20.00;38.40;;;;;;5013974;28;20687;-46
2021/11/16 07:30:02;;;;;;;32.47;20.25;;;20.10;38.30;;;;;;5031803;28;20100;-47
2021/11/16 07:32:30;;;;;;;28.33;20.77;;;20.10;38.40;;;;;;5031809;28;20038;-49
2021/11/16 07:35:10;;;;;;;31.73;21.85;;;20.10;38.40;;;;;;5032467;28;20013;-48
2021/11/16 07:37:37;;;;;;;30.15;21.92;;;20.10;38.30;;;;;;5031656;28;20029;-48
2021/11/16 07:40:21;;;;;;;29.30;22.00;;;20.10;38.30;;;;;;5014390;28;20053;-48
2021/11/16 07:43:03;;;;;;;32.53;22.75;;;20.10;38.30;;;;;;5031334;28;20074;-50
2021/11/16 07:45:30;;;;;;;28.83;22.85;;;20.10;38.30;;;;;;5031843;28;20533;-47
2021/11/16 07:48:04;;;;;;;34.65;22.85;;;20.10;38.30;;;;;;5031338;28;20060;-48
2021/11/16 07:50:38;;;;;;;30.88;23.05;;;20.10;38.20;;;;;;5013664;28;20017;-47
2021/11/16 07:53:13;;;;;;;35.90;23.88;;;20.10;38.20;;;;;;5031545;28;20029;-48
2021/11/16 07:55:40;;;;;;;34.03;23.55;;;20.10;38.20;;;;;;5031750;28;20013;-47
2021/11/16 07:58:07;;;;;;;34.88;23.80;;;20.20;38.20;;;;;;5031553;28;20095;-48
2021/11/16 08:00:34;;;;;;;32.70;24.77;;;20.10;38.20;;;;;;5031300;28;20022;-51
2021/11/16 08:03:04;;;;;;;30.52;23.80;;;20.10;38.20;;;;;;5031377;28;20093;-51
2021/11/16 08:11:19;;;;;;;32.83;23.70;;;20.00;38.40;;;;;;5003561;28;20049;-48
2021/11/16 08:14:05;;;;;;;39.15;26.02;;;19.90;38.60;;;;;;5031132;28;20018;-47
2021/11/16 08:16:31;;;;;;;36.10;24.55;;;19.90;38.70;;;;;;5031632;28;20026;-48
2021/11/16 08:19:09;;;;;;;51.38;30.00;;;19.80;38.90;;;;;;5032452;28;20120;-49
2021/11/16 08:21:36;;;;;;;46.70;29.80;;;19.50;40.40;;;;;;5032253;28;20017;-54
2021/11/16 08:24:07;;;;;;;48.38;29.88;;;19.40;41.90;;;;;;5032173;28;20089;-47
2021/11/16 08:26:38;;;;;;;50.05;31.27;;;19.60;43.10;;;;;;5032068;28;20075;-50
2021/11/16 08:29:05;;;;;;;52.63;29.75;;;19.80;43.70;;;;;;4997847;28;20033;-52
2021/11/16 08:31:37;;;;;;;47.60;29.67;;;19.90;43.90;;;;;;5032642;28;20020;-49
2021/11/16 08:34:04;;;;;;;49.03;30.95;;;20.10;44.40;;;;;;5015697;28;20021;-51
2021/11/16 08:36:33;;;;;;;46.25;28.55;;;20.20;44.60;;;;;;4998183;28;20021;-48
2021/11/16 08:39:00;;;;;;;45.63;29.20;;;20.30;44.80;;;;;;5014960;28;20025;-51
2021/11/16 08:41:31;;;;;;;47.15;28.88;;;20.40;45.20;;;;;;5032380;28;20025;-51
2021/11/16 08:44:15;;;;;;;47.75;29.55;;;20.40;45.20;;;;;;5031867;28;20017;-49
2021/11/16 08:46:42;;;;;;;46.72;30.40;;;20.50;45.30;;;;;;5032048;28;20045;-51
2021/11/16 08:49:09;;;;;;;59.15;29.30;;;20.60;46.20;;;;;;5032176;28;20104;-49
2021/11/16 08:51:43;;;;;;;49.45;30.13;;;20.60;45.60;;;;;;5014214;28;20097;-47
2021/11/16 08:54:09;;;;;;;46.03;28.50;;;20.70;45.70;;;;;;5031800;28;20021;-52
2021/11/16 08:56:42;;;;;;;51.22;28.98;;;20.80;45.90;;;;;;5014038;28;20013;-50
2021/11/16 08:59:16;;;;;;;49.25;29.13;;;20.80;45.90;;;;;;5031445;28;20087;-52
2021/11/16 09:02:05;;;;;;;48.70;28.38;;;20.90;46.00;;;;;;5031972;28;20038;-52
2021/11/16 09:04:33;;;;;;;52.42;28.58;;;20.90;46.60;;;;;;4997391;28;20029;-51
2021/11/16 09:06:59;;;;;;;50.08;29.17;;;20.80;46.40;;;;;;5031634;28;20045;-52
2021/11/16 09:09:27;;;;;;;48.35;30.15;;;20.60;44.90;;;;;;5032286;28;20025;-52
2021/11/16 09:12:01;;;;;;;52.10;30.58;;;20.50;44.90;;;;;;5014038;28;20521;-52
2021/11/16 09:14:28;;;;;;;47.88;29.38;;;20.50;44.60;;;;;;5031313;28;20089;-51
2021/11/16 09:16:54;;;;;;;50.25;31.30;;;20.40;44.10;;;;;;5013007;28;20049;-52
2021/11/16 09:19:31;;;;;;;44.17;30.77;;;20.30;42.50;;;;;;5012578;28;20037;-47
2021/11/16 09:21:57;;;;;;;49.20;33.00;;;20.00;43.60;;;;;;5033870;28;20117;-48
2021/11/16 09:24:31;;;;;;;55.42;35.13;;;19.60;43.80;;;;;;5016811;28;20093;-48
2021/11/16 09:27:09;;;;;;;54.95;34.25;;;19.40;43.90;;;;;;5034238;28;20087;-52
2021/11/16 09:29:36;;;;;;;56.65;36.72;;;19.10;43.90;;;;;;5033864;28;20014;-53
2021/11/16 09:32:15;;;;;;;58.72;36.45;;;18.70;43.90;;;;;;5034068;28;20018;-50
2021/11/16 09:34:44;;;;;;;50.30;37.13;;;18.60;44.30;;;;;;5033791;28;20013;-48
2021/11/16 09:37:14;;;;;;;60.22;38.83;;;18.40;44.20;;;;;;5015705;28;20040;-49
2021/11/16 09:39:47;;;;;;;53.70;36.90;;;18.20;44.60;;;;;;5016072;28;20025;-50
2021/11/16 09:42:24;;;;;;;51.00;37.28;;;18.20;44.80;;;;;;5015829;28;20025;-51
2021/11/16 09:44:53;;;;;;;53.97;36.85;;;18.10;44.70;;;;;;5033873;28;20500;-50
2021/11/16 09:47:23;;;;;;;59.13;37.50;;;18.00;44.70;;;;;;5033833;28;20458;-47
2021/11/16 09:50:01;;;;;;;54.67;37.42;;;18.00;44.70;;;;;;5033882;28;20014;-48
2021/11/16 09:52:41;;;;;;;55.25;37.28;;;17.90;44.90;;;;;;5016043;28;20386;-48
2021/11/16 09:55:12;;;;;;;56.03;38.45;;;17.90;44.90;;;;;;5033869;28;20013;-48
2021/11/16 09:57:39;;;;;;;55.17;36.78;;;17.90;44.80;;;;;;5016088;28;20108;-48
2021/11/16 10:00:18;;;;;;;59.65;36.80;;;18.00;45.30;;;;;;5033702;28;20037;-47
2021/11/16 10:02:49;;;;;;;54.90;35.88;;;18.10;45.20;;;;;;5033246;28;20085;-52
2021/11/16 10:05:21;;;;;;;56.03;37.58;;;18.20;44.80;;;;;;5033321;28;20009;-51
2021/11/16 10:07:47;;;;;;;53.50;34.00;;;18.20;44.90;;;;;;5033204;28;20078;-53
2021/11/16 10:10:14;;;;;;;56.13;33.00;;;18.30;45.00;;;;;;5015503;28;20092;-51
2021/11/16 10:12:45;;;;;;;52.03;34.05;;;18.40;44.40;;;;;;5033716;28;20045;-51
2021/11/16 10:15:13;;;;;;;59.10;34.85;;;18.50;44.30;;;;;;5033472;28;20018;-49
2021/11/16 10:17:41;;;;;;;52.58;34.38;;;18.40;44.30;;;;;;5033383;28;20096;-51
2021/11/16 10:20:08;;;;;;;62.22;37.00;;;18.30;43.90;;;;;;5032952;28;20079;-51
2021/11/16 10:22:34;;;;;;;54.72;36.25;;;18.00;43.40;;;;;;5015309;28;20060;-52
2021/11/16 10:25:14;;;;;;;53.75;35.92;;;17.40;43.80;;;;;;5016387;28;20364;-49
2021/11/16 10:27:40;;;;;;;62.60;36.58;;;16.90;44.50;;;;;;5033324;28;20084;-50
2021/11/16 10:30:12;;;;;;;59.85;38.03;;;16.70;45.10;;;;;;5033409;28;20094;-52
2021/11/16 10:32:40;;;;;;;60.28;36.30;;;16.70;45.20;;;;;;5032277;28;20026;-56
2021/11/16 10:35:06;;;;;;;54.85;38.60;;;16.60;45.50;;;;;;5015339;28;20017;-50
2021/11/16 10:37:44;;;;;;;54.88;37.47;;;16.70;45.70;;;;;;5015124;28;20091;-49
2021/11/16 10:40:10;;;;;;;54.33;37.50;;;16.70;45.50;;;;;;5032388;28;20125;-48
2021/11/16 10:42:48;;;;;;;57.85;37.72;;;16.00;46.20;;;;;;5032864;28;20018;-53
2021/11/16 10:45:18;;;;;;;60.65;37.22;;;15.90;47.60;;;;;;5032453;28;20060;-50
2021/11/16 10:47:50;;;;;;;55.83;35.80;;;16.20;47.00;;;;;;5033033;28;20049;-49
2021/11/16 10:50:18;;;;;;;50.33;35.35;;;16.20;46.40;;;;;;5032466;28;20025;-47
2021/11/16 10:52:55;;;;;;;54.33;34.80;;;15.80;47.20;;;;;;5032390;28;20109;-50
2021/11/16 10:55:21;;;;;;;54.17;36.63;;;16.00;47.10;;;;;;5016916;28;20017;-50
2021/11/16 10:58:03;;;;;;;50.63;36.70;;;15.40;46.90;;;;;;4998081;28;20018;-50
2021/11/16 11:00:54;;;;;;;51.80;33.45;;;15.60;47.60;;;;;;5034324;28;20017;-47
2021/11/16 11:03:26;;;;;;;50.40;32.80;;;16.20;46.50;;;;;;5019108;28;20030;-47
2021/11/16 11:05:54;;;;;;;50.80;30.55;;;16.80;45.30;;;;;;5033703;28;20140;-51
2021/11/16 11:08:31;;;;;;;46.38;30.90;;;17.20;44.20;;;;;;5033826;28;20031;-48
2021/11/16 11:10:57;;;;;;;40.70;28.27;;;17.40;43.50;;;;;;5015832;28;20052;-49
2021/11/16 11:13:30;;;;;;;40.97;27.02;;;17.70;42.90;;;;;;5033422;28;20052;-47
2021/11/16 11:15:56;;;;;;;43.13;27.75;;;17.90;42.40;;;;;;5015623;28;20469;-47
2021/11/16 11:18:37;;;;;;;38.35;25.63;;;18.10;42.00;;;;;;5033666;28;20022;-47
2021/11/16 11:21:05;;;;;;;40.22;25.30;;;18.30;41.60;;;;;;5033358;28;20076;-47
2021/11/16 11:23:43;;;;;;;40.53;25.05;;;18.40;41.30;;;;;;5033728;28;20020;-52
2021/11/16 11:29:27;;;;;;;35.17;23.08;;;18.70;40.80;;;;;;4988959;28;20025;-50
2021/11/16 11:32:00;;;;;;;42.47;23.98;;;18.80;40.60;;;;;;5032890;28;20100;-52
2021/11/16 11:34:42;;;;;;;35.40;23.08;;;18.90;40.50;;;;;;5032650;28;20020;-47
2021/11/16 11:37:24;;;;;;;36.50;24.33;;;19.00;40.30;;;;;;5032934;28;20014;-49
2021/11/16 11:40:00;;;;;;;30.98;23.35;;;19.00;40.20;;;;;;5032765;28;20559;-49
2021/11/16 11:42:27;;;;;;;34.38;22.42;;;19.10;40.20;;;;;;5032521;28;20022;-51
2021/11/16 11:45:21;;;;;;;35.45;22.52;;;19.20;40.10;;;;;;5014982;28;20041;-52
2021/11/16 11:47:45;;;;;;;46.42;25.13;;;19.20;39.90;;;;;;5031608;28;20362;-51
2021/11/16 11:50:20;;;;;;;58.38;26.08;;;19.10;41.10;;;;;;4998253;28;20013;-53
2021/11/16 11:52:46;;;;;;;40.50;25.90;;;19.10;42.50;;;;;;5032489;28;20482;-51
2021/11/16 11:55:12;;;;;;;42.90;27.27;;;19.20;43.00;;;;;;5032216;28;20037;-52
2021/11/16 11:57:39;;;;;;;43.10;27.83;;;19.30;43.00;;;;;;5032762;28;20022;-51
2021/11/16 12:00:06;;;;;;;38.50;27.33;;;19.40;44.60;;;;;;5015016;28;20072;-52
2021/11/16 12:02:32;;;;;;;44.33;29.40;;;19.40;43.20;;;;;;5031904;28;20029;-49
2021/11/16 12:04:59;;;;;;;49.17;29.13;;;19.40;42.90;;;;;;5032068;28;20066;-52
2021/11/16 12:07:28;;;;;;;50.58;29.90;;;19.50;43.10;;;;;;5013934;28;20060;-49
2021/11/16 12:09:54;;;;;;;42.72;28.67;;;19.40;42.60;;;;;;5031902;28;20017;-52
2021/11/16 12:12:20;;;;;;;45.92;29.55;;;19.50;42.40;;;;;;5031479;28;20025;-52
2021/11/16 12:15:03;;;;;;;42.33;28.45;;;19.50;42.40;;;;;;5014013;28;20025;-52
2021/11/16 12:17:33;;;;;;;43.67;29.52;;;19.60;42.40;;;;;;5031631;28;20045;-49
2021/11/16 12:19:59;;;;;;;43.67;28.48;;;19.50;42.30;;;;;;5013449;28;20025;-51
2021/11/16 12:22:30;;;;;;;43.05;26.98;;;19.60;42.20;;;;;;5030939;28;20381;-51
2021/11/16 12:24:59;;;;;;;41.35;26.40;;;19.70;42.50;;;;;;5030523;28;20536;-49
2021/11/16 12:27:32;;;;;;;42.72;26.23;;;19.80;42.40;;;;;;5030739;28;20351;-48
2021/11/16 12:29:58;;;;;;;43.55;25.80;;;19.80;42.30;;;;;;5013464;28;20032;-46
2021/11/16 12:32:28;;;;;;;40.75;23.92;;;19.90;42.60;;;;;;5013615;28;20009;-48
2021/11/16 12:35:05;;;;;;;42.58;24.58;;;20.10;42.80;;;;;;5031219;28;20097;-47
2021/11/16 12:37:38;;;;;;;38.42;23.92;;;20.20;43.30;;;;;;5031239;28;20025;-52
2021/11/16 12:40:18;;;;;;;228.35;40.10;;;20.40;42.80;;;;;;5030268;28;20022;-47
2021/11/16 12:43:24;;;;;;;62.53;27.37;;;20.40;43.30;;;;;;4998723;28;20026;-49
2021/11/16 12:45:58;;;;;;;83.97;27.08;;;20.40;42.80;;;;;;5031703;28;20017;-47
2021/11/16 12:48:56;;;;;;;66.25;27.30;;;20.20;42.80;;;;;;5013837;28;20025;-50
2021/11/16 12:51:34;;;;;;;56.63;25.95;;;20.20;42.90;;;;;;5031782;28;20037;-53
2021/11/16 12:54:08;;;;;;;63.60;25.35;;;20.10;43.80;;;;;;5032048;28;20018;-50
2021/11/16 12:56:42;;;;;;;49.78;25.23;;;20.10;43.00;;;;;;5035205;28;20029;-47